sensor_id;sensor_type;location;lat;lon;timestamp;pressure;altitude;pressure_sealevel;temperature;humidity
68230;BME280;55048;52.220;5.160;2023-04-25T00:01:12;100947.31;;;7.78;81.02
68230;BME280;55048;52.220;5.160;2023-04-25T00:03:38;101017.56;;;8.12;80.57
68230;BME280;55048;52.220;5.160;2023-04-25T00:06:04;101007.94;;;8.18;80.55
68230;BME280;55048;52.220;5.160;2023-04-25T00:08:29;100982.97;;;8.07;80.27
68230;BME280;55048;52.220;5.160;2023-04-25T00:10:56;100894.16;;;7.55;80.29
68230;BME280;55048;52.220;5.160;2023-04-25T00:13:22;101021.59;;;8.47;80.18
68230;BME280;55048;52.220;5.160;2023-04-25T00:15:47;101017.56;;;8.44;80.74
68230;BME280;55048;52.220;5.160;2023-04-25T00:18:14;101021.94;;;8.25;80.44
68230;BME280;55048;52.220;5.160;2023-04-25T00:20:39;101023.50;;;8.39;80.58
68230;BME280;55048;52.220;5.160;2023-04-25T00:23:05;100966.53;;;7.99;80.40
68230;BME280;55048;52.220;5.160;2023-04-25T00:25:30;100988.59;;;8.17;80.62
68230;BME280;55048;52.220;5.160;2023-04-25T00:27:56;100979.63;;;8.18;80.13
68230;BME280;55048;52.220;5.160;2023-04-25T00:30:21;100999.91;;;8.31;79.80
68230;BME280;55048;52.220;5.160;2023-04-25T00:32:47;100983.22;;;8.24;80.16
68230;BME280;55048;52.220;5.160;2023-04-25T00:35:14;100978.81;;;8.18;79.54
68230;BME280;55048;52.220;5.160;2023-04-25T00:37:39;101019.22;;;8.38;79.65
68230;BME280;55048;52.220;5.160;2023-04-25T00:40:06;101040.31;;;8.52;79.69
68230;BME280;55048;52.220;5.160;2023-04-25T00:42:31;100967.94;;;8.01;79.65
68230;BME280;55048;52.220;5.160;2023-04-25T00:44:58;101037.50;;;8.47;79.73
68230;BME280;55048;52.220;5.160;2023-04-25T00:47:25;100960.38;;;7.80;79.54
68230;BME280;55048;52.220;5.160;2023-04-25T00:49:50;101047.13;;;8.41;79.40
68230;BME280;55048;52.220;5.160;2023-04-25T00:52:16;100740.03;;;6.46;79.36
68230;BME280;55048;52.220;5.160;2023-04-25T00:54:42;100956.69;;;7.81;79.35
68230;BME280;55048;52.220;5.160;2023-04-25T00:57:07;100920.09;;;7.46;79.53
68230;BME280;55048;52.220;5.160;2023-04-25T00:59:33;100863.06;;;6.80;79.04
68230;BME280;55048;52.220;5.160;2023-04-25T01:01:58;101017.66;;;7.99;79.54
68230;BME280;55048;52.220;5.160;2023-04-25T01:04:25;100983.16;;;7.81;78.98
68230;BME280;55048;52.220;5.160;2023-04-25T01:06:52;100936.38;;;7.43;78.90
68230;BME280;55048;52.220;5.160;2023-04-25T01:09:18;100951.16;;;7.57;78.91
68230;BME280;55048;52.220;5.160;2023-04-25T01:11:44;100981.47;;;7.61;78.82
68230;BME280;55048;52.220;5.160;2023-04-25T01:14:10;100999.28;;;7.79;78.80
68230;BME280;55048;52.220;5.160;2023-04-25T01:16:36;100989.31;;;7.75;78.82
68230;BME280;55048;52.220;5.160;2023-04-25T01:19:09;100945.94;;;7.44;78.79
68230;BME280;55048;52.220;5.160;2023-04-25T01:21:37;101025.13;;;7.84;78.65
68230;BME280;55048;52.220;5.160;2023-04-25T01:24:03;101060.22;;;8.04;78.69
68230;BME280;55048;52.220;5.160;2023-04-25T01:26:29;100921.44;;;7.17;78.72
68230;BME280;55048;52.220;5.160;2023-04-25T01:28:55;100776.50;;;6.24;78.50
68230;BME280;55048;52.220;5.160;2023-04-25T01:31:21;101008.56;;;7.57;78.74
68230;BME280;55048;52.220;5.160;2023-04-25T01:33:47;101015.88;;;7.61;79.02
68230;BME280;55048;52.220;5.160;2023-04-25T01:36:13;100980.75;;;7.41;78.97
68230;BME280;55048;52.220;5.160;2023-04-25T01:38:39;101048.56;;;7.80;78.93
68230;BME280;55048;52.220;5.160;2023-04-25T01:41:05;101037.22;;;7.66;78.69
68230;BME280;55048;52.220;5.160;2023-04-25T01:43:32;101030.72;;;7.62;78.71
68230;BME280;55048;52.220;5.160;2023-04-25T01:45:58;101058.91;;;7.82;78.79
68230;BME280;55048;52.220;5.160;2023-04-25T01:48:24;101033.19;;;7.57;78.55
68230;BME280;55048;52.220;5.160;2023-04-25T01:50:50;100984.28;;;7.28;78.58
68230;BME280;55048;52.220;5.160;2023-04-25T01:53:16;101043.56;;;7.59;78.81
68230;BME280;55048;52.220;5.160;2023-04-25T01:55:43;101085.03;;;7.72;78.89
68230;BME280;55048;52.220;5.160;2023-04-25T01:58:12;101034.91;;;7.38;78.96
68230;BME280;55048;52.220;5.160;2023-04-25T02:01:01;100974.22;;;7.05;78.82
68230;BME280;55048;52.220;5.160;2023-04-25T02:03:32;101096.69;;;7.64;79.34
68230;BME280;55048;52.220;5.160;2023-04-25T02:05:58;101109.53;;;7.60;79.04
68230;BME280;55048;52.220;5.160;2023-04-25T02:08:24;101079.59;;;7.60;79.25
68230;BME280;55048;52.220;5.160;2023-04-25T02:10:53;101049.34;;;7.36;79.09
68230;BME280;55048;52.220;5.160;2023-04-25T02:13:19;100973.88;;;6.75;78.93
68230;BME280;55048;52.220;5.160;2023-04-25T02:16:12;101020.97;;;7.18;78.75
68230;BME280;55048;52.220;5.160;2023-04-25T02:18:38;101035.19;;;7.17;79.08
68230;BME280;55048;52.220;5.160;2023-04-25T02:21:05;101002.31;;;7.00;78.93
68230;BME280;55048;52.220;5.160;2023-04-25T02:23:31;101076.00;;;7.41;79.11
68230;BME280;55048;52.220;5.160;2023-04-25T02:26:02;101025.00;;;7.21;79.32
68230;BME280;55048;52.220;5.160;2023-04-25T02:28:27;101036.56;;;7.26;79.45
68230;BME280;55048;52.220;5.160;2023-04-25T02:30:52;101025.44;;;7.11;79.51
68230;BME280;55048;52.220;5.160;2023-04-25T02:33:18;101065.63;;;7.46;79.80
68230;BME280;55048;52.220;5.160;2023-04-25T02:35:43;100922.91;;;6.61;79.67
68230;BME280;55048;52.220;5.160;2023-04-25T02:38:09;100967.97;;;6.80;79.60
68230;BME280;55048;52.220;5.160;2023-04-25T02:40:34;101069.09;;;7.47;80.12
68230;BME280;55048;52.220;5.160;2023-04-25T02:43:00;100984.88;;;6.79;79.82
68230;BME280;55048;52.220;5.160;2023-04-25T02:45:26;101081.50;;;7.46;80.03
68230;BME280;55048;52.220;5.160;2023-04-25T02:47:51;101085.16;;;7.45;79.96
68230;BME280;55048;52.220;5.160;2023-04-25T02:50:18;101083.31;;;7.52;80.06
68230;BME280;55048;52.220;5.160;2023-04-25T02:52:43;101042.91;;;7.25;80.05
68230;BME280;55048;52.220;5.160;2023-04-25T02:55:14;101010.03;;;7.01;80.27
68230;BME280;55048;52.220;5.160;2023-04-25T02:57:39;101035.44;;;7.09;80.49
68230;BME280;55048;52.220;5.160;2023-04-25T03:00:05;101037.50;;;7.00;80.33
68230;BME280;55048;52.220;5.160;2023-04-25T03:02:31;101028.94;;;7.05;80.31
68230;BME280;55048;52.220;5.160;2023-04-25T03:04:57;101036.66;;;7.06;80.57
68230;BME280;55048;52.220;5.160;2023-04-25T03:07:23;101012.66;;;7.01;80.07
68230;BME280;55048;52.220;5.160;2023-04-25T03:09:48;100777.06;;;5.35;80.05
68230;BME280;55048;52.220;5.160;2023-04-25T03:12:14;101041.56;;;6.89;80.67
68230;BME280;55048;52.220;5.160;2023-04-25T03:14:39;101043.63;;;6.87;80.39
68230;BME280;55048;52.220;5.160;2023-04-25T03:17:05;101048.53;;;6.64;79.86
68230;BME280;55048;52.220;5.160;2023-04-25T03:19:30;101069.06;;;6.82;80.57
68230;BME280;55048;52.220;5.160;2023-04-25T03:21:55;101049.31;;;6.78;80.38
68230;BME280;55048;52.220;5.160;2023-04-25T03:24:21;101053.19;;;6.82;80.45
68230;BME280;55048;52.220;5.160;2023-04-25T03:26:47;101112.28;;;7.21;80.21
68230;BME280;55048;52.220;5.160;2023-04-25T03:29:12;101015.81;;;6.52;80.18
68230;BME280;55048;52.220;5.160;2023-04-25T03:31:40;101038.56;;;6.73;80.18
68230;BME280;55048;52.220;5.160;2023-04-25T03:34:06;101125.31;;;7.29;80.22
68230;BME280;55048;52.220;5.160;2023-04-25T03:36:31;101085.47;;;7.10;79.99
68230;BME280;55048;52.220;5.160;2023-04-25T03:38:57;101019.44;;;6.77;79.90
68230;BME280;55048;52.220;5.160;2023-04-25T03:41:23;101058.22;;;7.03;79.88
68230;BME280;55048;52.220;5.160;2023-04-25T03:43:53;100984.50;;;6.55;79.52
68230;BME280;55048;52.220;5.160;2023-04-25T03:46:18;100959.53;;;6.45;79.51
68230;BME280;55048;52.220;5.160;2023-04-25T03:48:44;101056.63;;;6.96;79.51
68230;BME280;55048;52.220;5.160;2023-04-25T03:51:16;101120.63;;;7.24;78.78
68230;BME280;55048;52.220;5.160;2023-04-25T03:53:43;101054.00;;;6.76;79.16
68230;BME280;55048;52.220;5.160;2023-04-25T03:56:14;101113.75;;;7.10;79.33
68230;BME280;55048;52.220;5.160;2023-04-25T03:58:40;101124.75;;;7.13;78.99
68230;BME280;55048;52.220;5.160;2023-04-25T04:01:06;100979.88;;;6.11;77.96
68230;BME280;55048;52.220;5.160;2023-04-25T04:03:35;101094.84;;;6.80;78.15
68230;BME280;55048;52.220;5.160;2023-04-25T04:06:02;101082.47;;;6.74;78.09
68230;BME280;55048;52.220;5.160;2023-04-25T04:08:29;101106.66;;;6.97;78.04
68230;BME280;55048;52.220;5.160;2023-04-25T04:10:56;101011.97;;;6.41;77.98
68230;BME280;55048;52.220;5.160;2023-04-25T04:13:22;101034.94;;;6.41;77.35
68230;BME280;55048;52.220;5.160;2023-04-25T04:15:47;101146.69;;;7.07;77.95
68230;BME280;55048;52.220;5.160;2023-04-25T04:18:13;100994.72;;;6.12;77.75
68230;BME280;55048;52.220;5.160;2023-04-25T04:20:38;101135.34;;;7.00;77.71
68230;BME280;55048;52.220;5.160;2023-04-25T04:23:05;101080.03;;;6.65;77.84
68230;BME280;55048;52.220;5.160;2023-04-25T04:25:30;101076.38;;;6.73;77.51
68230;BME280;55048;52.220;5.160;2023-04-25T04:28:17;101045.06;;;6.57;77.80
68230;BME280;55048;52.220;5.160;2023-04-25T04:30:54;101112.75;;;7.04;77.89
68230;BME280;55048;52.220;5.160;2023-04-25T04:33:20;100977.22;;;6.04;77.65
68230;BME280;55048;52.220;5.160;2023-04-25T04:35:51;101147.50;;;7.21;77.62
68230;BME280;55048;52.220;5.160;2023-04-25T04:38:18;101145.50;;;7.10;77.66
68230;BME280;55048;52.220;5.160;2023-04-25T04:40:44;101090.81;;;6.77;77.84
68230;BME280;55048;52.220;5.160;2023-04-25T04:43:16;100752.47;;;4.68;77.29
68230;BME280;55048;52.220;5.160;2023-04-25T04:46:05;101167.22;;;7.38;77.74
68230;BME280;55048;52.220;5.160;2023-04-25T04:48:54;101177.16;;;7.36;77.60
68230;BME280;55048;52.220;5.160;2023-04-25T04:51:59;101156.66;;;7.19;77.89
68230;BME280;55048;52.220;5.160;2023-04-25T04:54:49;101012.16;;;6.13;77.78
68230;BME280;55048;52.220;5.160;2023-04-25T04:57:42;101084.09;;;6.42;77.19
68230;BME280;55048;52.220;5.160;2023-04-25T05:00:30;101075.16;;;6.36;76.73
68230;BME280;55048;52.220;5.160;2023-04-25T05:03:26;101172.97;;;6.96;75.82
68230;BME280;55048;52.220;5.160;2023-04-25T05:06:23;101139.19;;;6.84;75.81
68230;BME280;55048;52.220;5.160;2023-04-25T05:09:11;101193.28;;;7.08;75.11
68230;BME280;55048;52.220;5.160;2023-04-25T05:11:46;101145.31;;;6.72;73.41
68230;BME280;55048;52.220;5.160;2023-04-25T05:14:21;101159.53;;;6.77;75.03
68230;BME280;55048;52.220;5.160;2023-04-25T05:17:03;101064.78;;;6.28;74.35
68230;BME280;55048;52.220;5.160;2023-04-25T05:19:56;101210.78;;;7.16;73.91
68230;BME280;55048;52.220;5.160;2023-04-25T05:22:33;101195.53;;;7.05;73.93
68230;BME280;55048;52.220;5.160;2023-04-25T05:25:09;101199.00;;;6.85;73.12
68230;BME280;55048;52.220;5.160;2023-04-25T05:27:46;101196.16;;;7.13;73.62
68230;BME280;55048;52.220;5.160;2023-04-25T05:30:26;101214.44;;;7.35;73.24
68230;BME280;55048;52.220;5.160;2023-04-25T05:33:05;101202.03;;;7.22;73.20
68230;BME280;55048;52.220;5.160;2023-04-25T05:35:31;101112.56;;;6.66;73.49
68230;BME280;55048;52.220;5.160;2023-04-25T05:37:57;101206.28;;;7.36;73.70
68230;BME280;55048;52.220;5.160;2023-04-25T05:40:36;101214.56;;;7.60;73.44
68230;BME280;55048;52.220;5.160;2023-04-25T05:43:11;101197.09;;;7.46;73.52
68230;BME280;55048;52.220;5.160;2023-04-25T05:45:55;101215.06;;;7.37;73.21
68230;BME280;55048;52.220;5.160;2023-04-25T05:48:40;101119.88;;;6.84;73.54
68230;BME280;55048;52.220;5.160;2023-04-25T05:51:20;101134.28;;;6.95;73.18
68230;BME280;55048;52.220;5.160;2023-04-25T05:53:57;101104.84;;;6.78;73.60
68230;BME280;55048;52.220;5.160;2023-04-25T05:56:22;101153.00;;;7.20;73.30
68230;BME280;55048;52.220;5.160;2023-04-25T05:58:56;101143.66;;;7.10;73.52
68230;BME280;55048;52.220;5.160;2023-04-25T06:01:22;101189.56;;;7.49;73.39
68230;BME280;55048;52.220;5.160;2023-04-25T06:03:48;101222.00;;;7.96;73.29
68230;BME280;55048;52.220;5.160;2023-04-25T06:06:17;101258.03;;;8.62;73.06
68230;BME280;55048;52.220;5.160;2023-04-25T06:08:42;101252.34;;;8.90;71.92
68230;BME280;55048;52.220;5.160;2023-04-25T06:11:10;101269.06;;;8.90;71.23
68230;BME280;55048;52.220;5.160;2023-04-25T06:13:35;101207.97;;;8.34;71.02
68230;BME280;55048;52.220;5.160;2023-04-25T06:16:01;101261.81;;;8.41;71.42
68230;BME280;55048;52.220;5.160;2023-04-25T06:18:26;100917.09;;;6.13;70.90
68230;BME280;55048;52.220;5.160;2023-04-25T06:20:52;101206.81;;;7.72;71.54
68230;BME280;55048;52.220;5.160;2023-04-25T06:23:17;101224.69;;;7.83;71.87
68230;BME280;55048;52.220;5.160;2023-04-25T06:25:52;101249.97;;;7.85;71.92
68230;BME280;55048;52.220;5.160;2023-04-25T06:28:18;101270.56;;;7.83;72.45
68230;BME280;55048;52.220;5.160;2023-04-25T06:30:44;101141.84;;;6.98;72.54
68230;BME280;55048;52.220;5.160;2023-04-25T06:33:13;101187.34;;;7.39;72.37
68230;BME280;55048;52.220;5.160;2023-04-25T06:35:39;101225.72;;;7.82;72.52
68230;BME280;55048;52.220;5.160;2023-04-25T06:38:08;101174.88;;;7.66;71.82
68230;BME280;55048;52.220;5.160;2023-04-25T06:40:35;101197.00;;;7.85;71.10
68230;BME280;55048;52.220;5.160;2023-04-25T06:43:00;101181.13;;;7.85;70.76
68230;BME280;55048;52.220;5.160;2023-04-25T06:45:43;101182.75;;;7.86;70.50
68230;BME280;55048;52.220;5.160;2023-04-25T06:48:09;101211.06;;;8.37;69.84
68230;BME280;55048;52.220;5.160;2023-04-25T06:50:34;101269.25;;;8.64;69.37
68230;BME280;55048;52.220;5.160;2023-04-25T06:52:59;101311.94;;;9.19;69.66
68230;BME280;55048;52.220;5.160;2023-04-25T06:55:27;101250.78;;;8.82;69.36
68230;BME280;55048;52.220;5.160;2023-04-25T06:58:11;101295.34;;;8.99;69.62
68230;BME280;55048;52.220;5.160;2023-04-25T07:00:55;101249.66;;;8.65;68.85
68230;BME280;55048;52.220;5.160;2023-04-25T07:03:23;101308.34;;;9.07;69.61
68230;BME280;55048;52.220;5.160;2023-04-25T07:05:50;101303.13;;;8.93;69.44
68230;BME280;55048;52.220;5.160;2023-04-25T07:08:16;101314.88;;;9.04;69.26
68230;BME280;55048;52.220;5.160;2023-04-25T07:10:42;101213.97;;;8.61;68.83
68230;BME280;55048;52.220;5.160;2023-04-25T07:13:07;101273.13;;;8.93;67.00
68230;BME280;55048;52.220;5.160;2023-04-25T07:15:33;101255.75;;;8.97;66.02
68230;BME280;55048;52.220;5.160;2023-04-25T07:17:59;101258.66;;;8.89;65.75
68230;BME280;55048;52.220;5.160;2023-04-25T07:20:25;101259.28;;;8.91;64.44
68230;BME280;55048;52.220;5.160;2023-04-25T07:22:52;101183.28;;;8.47;65.21
68230;BME280;55048;52.220;5.160;2023-04-25T07:25:19;101339.38;;;9.38;64.97
68230;BME280;55048;52.220;5.160;2023-04-25T07:27:45;101339.16;;;9.39;65.30
68230;BME280;55048;52.220;5.160;2023-04-25T07:30:14;101188.16;;;8.50;65.26
68230;BME280;55048;52.220;5.160;2023-04-25T07:32:40;101287.28;;;9.12;64.73
68230;BME280;55048;52.220;5.160;2023-04-25T07:35:06;101232.56;;;8.86;63.59
68230;BME280;55048;52.220;5.160;2023-04-25T07:37:34;101279.94;;;9.14;63.66
68230;BME280;55048;52.220;5.160;2023-04-25T07:40:09;101328.09;;;9.42;62.82
68230;BME280;55048;52.220;5.160;2023-04-25T07:42:36;101287.38;;;8.99;62.92
68230;BME280;55048;52.220;5.160;2023-04-25T07:45:05;101209.97;;;8.52;61.82
68230;BME280;55048;52.220;5.160;2023-04-25T07:47:30;101055.25;;;8.14;61.60
68230;BME280;55048;52.220;5.160;2023-04-25T07:49:56;101320.59;;;9.83;60.02
68230;BME280;55048;52.220;5.160;2023-04-25T07:52:23;101361.41;;;10.32;60.39
68230;BME280;55048;52.220;5.160;2023-04-25T07:54:54;101096.41;;;9.35;59.15
68230;BME280;55048;52.220;5.160;2023-04-25T07:57:27;101267.25;;;10.03;58.91
68230;BME280;55048;52.220;5.160;2023-04-25T07:59:54;101319.72;;;9.89;58.32
68230;BME280;55048;52.220;5.160;2023-04-25T08:02:20;101279.50;;;9.42;59.12
68230;BME280;55048;52.220;5.160;2023-04-25T08:04:46;101289.34;;;9.35;59.76
68230;BME280;55048;52.220;5.160;2023-04-25T08:07:15;101377.78;;;9.60;59.85
68230;BME280;55048;52.220;5.160;2023-04-25T08:09:48;101318.06;;;9.19;60.16
68230;BME280;55048;52.220;5.160;2023-04-25T08:12:21;101368.75;;;9.43;60.68
68230;BME280;55048;52.220;5.160;2023-04-25T08:14:47;101404.88;;;9.69;60.98
68230;BME280;55048;52.220;5.160;2023-04-25T08:17:12;101339.94;;;9.40;60.93
68230;BME280;55048;52.220;5.160;2023-04-25T08:19:40;101294.00;;;9.14;60.91
68230;BME280;55048;52.220;5.160;2023-04-25T08:22:08;101158.38;;;8.09;60.42
68230;BME280;55048;52.220;5.160;2023-04-25T08:24:45;101388.94;;;9.69;60.06
68230;BME280;55048;52.220;5.160;2023-04-25T08:27:11;101312.09;;;9.49;59.58
68230;BME280;55048;52.220;5.160;2023-04-25T08:29:37;101330.75;;;10.29;58.42
68230;BME280;55048;52.220;5.160;2023-04-25T08:32:03;101287.41;;;10.29;57.58
68230;BME280;55048;52.220;5.160;2023-04-25T08:34:29;101367.22;;;10.77;57.06
68230;BME280;55048;52.220;5.160;2023-04-25T08:36:55;101328.91;;;10.30;57.72
68230;BME280;55048;52.220;5.160;2023-04-25T08:39:37;101383.34;;;10.64;54.67
68230;BME280;55048;52.220;5.160;2023-04-25T08:42:21;101404.28;;;10.72;55.05
68230;BME280;55048;52.220;5.160;2023-04-25T08:44:49;101384.28;;;10.33;53.59
68230;BME280;55048;52.220;5.160;2023-04-25T08:47:15;101359.28;;;10.40;53.30
68230;BME280;55048;52.220;5.160;2023-04-25T08:49:46;101361.63;;;10.48;52.08
68230;BME280;55048;52.220;5.160;2023-04-25T08:52:13;101377.31;;;10.87;52.77
68230;BME280;55048;52.220;5.160;2023-04-25T08:54:42;101423.78;;;11.33;50.82
68230;BME280;55048;52.220;5.160;2023-04-25T08:57:11;101390.34;;;11.07;49.93
68230;BME280;55048;52.220;5.160;2023-04-25T08:59:39;101420.44;;;11.37;49.03
68230;BME280;55048;52.220;5.160;2023-04-25T09:02:05;101418.81;;;11.36;48.54
68230;BME280;55048;52.220;5.160;2023-04-25T09:04:31;101437.50;;;11.48;49.06
68230;BME280;55048;52.220;5.160;2023-04-25T09:06:57;101343.69;;;11.04;48.78
68230;BME280;55048;52.220;5.160;2023-04-25T09:09:24;101443.31;;;11.57;49.89
68230;BME280;55048;52.220;5.160;2023-04-25T09:11:49;101405.03;;;10.79;50.03
68230;BME280;55048;52.220;5.160;2023-04-25T09:14:17;101464.38;;;10.80;51.31
68230;BME280;55048;52.220;5.160;2023-04-25T09:17:00;101462.69;;;10.67;52.57
68230;BME280;55048;52.220;5.160;2023-04-25T09:19:37;101448.41;;;10.18;55.09
68230;BME280;55048;52.220;5.160;2023-04-25T09:22:08;101481.56;;;10.15;56.95
68230;BME280;55048;52.220;5.160;2023-04-25T09:24:36;101478.81;;;10.04;58.36
68230;BME280;55048;52.220;5.160;2023-04-25T09:27:06;101340.34;;;9.12;59.48
68230;BME280;55048;52.220;5.160;2023-04-25T09:29:34;101488.34;;;9.86;60.94
68230;BME280;55048;52.220;5.160;2023-04-25T09:32:15;101337.59;;;8.93;60.22
68230;BME280;55048;52.220;5.160;2023-04-25T09:34:43;101494.03;;;10.15;60.11
68230;BME280;55048;52.220;5.160;2023-04-25T09:37:10;101448.00;;;9.96;58.88
68230;BME280;55048;52.220;5.160;2023-04-25T09:39:59;101491.84;;;10.37;58.27
68230;BME280;55048;52.220;5.160;2023-04-25T09:42:29;101453.03;;;10.29;57.69
68230;BME280;55048;52.220;5.160;2023-04-25T09:44:57;101490.22;;;10.36;56.66
68230;BME280;55048;52.220;5.160;2023-04-25T09:47:25;101508.28;;;10.27;56.13
68230;BME280;55048;52.220;5.160;2023-04-25T09:49:53;101498.22;;;10.54;55.36
68230;BME280;55048;52.220;5.160;2023-04-25T09:52:22;101510.06;;;10.77;53.71
68230;BME280;55048;52.220;5.160;2023-04-25T09:54:56;101418.88;;;10.08;53.30
68230;BME280;55048;52.220;5.160;2023-04-25T09:57:30;101515.16;;;10.60;52.68
68230;BME280;55048;52.220;5.160;2023-04-25T10:00:00;101458.84;;;10.44;52.79
68230;BME280;55048;52.220;5.160;2023-04-25T10:02:30;101358.91;;;9.93;52.76
68230;BME280;55048;52.220;5.160;2023-04-25T10:05:05;101503.19;;;10.87;51.83
68230;BME280;55048;52.220;5.160;2023-04-25T10:07:37;101440.72;;;10.90;51.42
68230;BME280;55048;52.220;5.160;2023-04-25T10:10:07;101451.22;;;11.03;50.76
68230;BME280;55048;52.220;5.160;2023-04-25T10:12:33;101505.28;;;11.52;50.68
68230;BME280;55048;52.220;5.160;2023-04-25T10:14:59;101512.25;;;11.65;50.75
68230;BME280;55048;52.220;5.160;2023-04-25T10:17:26;101476.41;;;11.49;50.79
68230;BME280;55048;52.220;5.160;2023-04-25T10:19:55;101514.06;;;11.83;49.20
68230;BME280;55048;52.220;5.160;2023-04-25T10:22:39;101497.44;;;11.39;47.32
68230;BME280;55048;52.220;5.160;2023-04-25T10:25:06;101464.81;;;11.43;47.44
68230;BME280;55048;52.220;5.160;2023-04-25T10:27:33;101382.31;;;11.25;47.64
68230;BME280;55048;52.220;5.160;2023-04-25T10:30:04;101505.22;;;12.24;46.26
68230;BME280;55048;52.220;5.160;2023-04-25T10:32:35;101397.47;;;11.66;46.50
68230;BME280;55048;52.220;5.160;2023-04-25T10:35:27;101514.72;;;12.79;44.87
68230;BME280;55048;52.220;5.160;2023-04-25T10:38:04;101519.50;;;12.53;44.95
68230;BME280;55048;52.220;5.160;2023-04-25T10:40:33;101536.19;;;12.48;47.84
68230;BME280;55048;52.220;5.160;2023-04-25T10:45:54;101501.78;;;10.85;52.63
68230;BME280;55048;52.220;5.160;2023-04-25T10:48:27;101530.53;;;10.76;54.14
68230;BME280;55048;52.220;5.160;2023-04-25T10:51:19;101513.84;;;10.44;54.50
68230;BME280;55048;52.220;5.160;2023-04-25T10:53:46;101513.38;;;10.29;54.38
68230;BME280;55048;52.220;5.160;2023-04-25T10:56:22;101560.06;;;10.50;54.65
68230;BME280;55048;52.220;5.160;2023-04-25T10:58:48;101453.47;;;9.76;54.82
68230;BME280;55048;52.220;5.160;2023-04-25T11:01:15;101565.78;;;10.21;55.28
68230;BME280;55048;52.220;5.160;2023-04-25T11:03:44;101556.78;;;10.16;55.68
68230;BME280;55048;52.220;5.160;2023-04-25T11:08:49;101569.50;;;10.14;56.89
68230;BME280;55048;52.220;5.160;2023-04-25T11:11:16;101500.66;;;10.06;56.18
68230;BME280;55048;52.220;5.160;2023-04-25T11:13:43;101549.88;;;10.65;55.15
68230;BME280;55048;52.220;5.160;2023-04-25T11:16:08;101488.09;;;10.63;53.81
68230;BME280;55048;52.220;5.160;2023-04-25T11:18:33;101555.28;;;11.32;52.51
68230;BME280;55048;52.220;5.160;2023-04-25T11:20:59;101551.41;;;11.64;52.17
68230;BME280;55048;52.220;5.160;2023-04-25T11:23:25;101482.66;;;11.43;49.38
68230;BME280;55048;52.220;5.160;2023-04-25T11:25:52;101543.00;;;12.09;48.24
68230;BME280;55048;52.220;5.160;2023-04-25T11:28:21;101515.03;;;12.00;47.26
68230;BME280;55048;52.220;5.160;2023-04-25T11:30:48;101568.06;;;11.60;50.14
68230;BME280;55048;52.220;5.160;2023-04-25T11:33:15;101524.56;;;10.99;52.27
68230;BME280;55048;52.220;5.160;2023-04-25T11:35:40;101520.31;;;10.55;53.77
68230;BME280;55048;52.220;5.160;2023-04-25T11:38:06;101538.59;;;10.69;54.09
68230;BME280;55048;52.220;5.160;2023-04-25T11:40:31;101506.44;;;10.28;55.00
68230;BME280;55048;52.220;5.160;2023-04-25T11:42:59;101559.63;;;10.21;56.44
68230;BME280;55048;52.220;5.160;2023-04-25T11:45:26;101467.13;;;9.48;56.42
68230;BME280;55048;52.220;5.160;2023-04-25T11:47:51;101431.38;;;9.19;56.92
68230;BME280;55048;52.220;5.160;2023-04-25T11:50:17;101562.47;;;9.94;56.98
68230;BME280;55048;52.220;5.160;2023-04-25T11:52:44;101588.66;;;10.22;57.05
68230;BME280;55048;52.220;5.160;2023-04-25T11:55:15;101584.91;;;10.37;56.99
68230;BME280;55048;52.220;5.160;2023-04-25T11:57:42;101512.72;;;10.08;56.70
68230;BME280;55048;52.220;5.160;2023-04-25T12:00:16;101584.19;;;10.73;56.61
68230;BME280;55048;52.220;5.160;2023-04-25T12:02:43;101513.91;;;10.12;56.16
68230;BME280;55048;52.220;5.160;2023-04-25T12:05:10;101587.56;;;10.62;56.49
68230;BME280;55048;52.220;5.160;2023-04-25T12:07:36;101348.53;;;9.10;55.87
68230;BME280;55048;52.220;5.160;2023-04-25T12:10:11;101554.75;;;10.50;55.38
68230;BME280;55048;52.220;5.160;2023-04-25T12:12:37;101583.69;;;10.83;54.96
68230;BME280;55048;52.220;5.160;2023-04-25T12:15:16;101579.38;;;10.82;54.54
68230;BME280;55048;52.220;5.160;2023-04-25T12:17:49;101549.16;;;10.76;53.48
68230;BME280;55048;52.220;5.160;2023-04-25T12:20:17;101570.47;;;10.94;53.15
68230;BME280;55048;52.220;5.160;2023-04-25T12:22:44;101473.38;;;10.42;50.47
68230;BME280;55048;52.220;5.160;2023-04-25T12:25:12;101583.34;;;11.34;50.21
68230;BME280;55048;52.220;5.160;2023-04-25T12:27:38;101524.63;;;11.29;49.61
68230;BME280;55048;52.220;5.160;2023-04-25T12:30:07;101595.84;;;12.00;48.81
68230;BME280;55048;52.220;5.160;2023-04-25T12:32:33;101559.22;;;11.78;47.19
68230;BME280;55048;52.220;5.160;2023-04-25T12:34:59;101548.66;;;12.01;46.40
68230;BME280;55048;52.220;5.160;2023-04-25T12:37:24;101543.31;;;12.01;46.17
68230;BME280;55048;52.220;5.160;2023-04-25T12:39:50;101502.38;;;11.54;47.19
68230;BME280;55048;52.220;5.160;2023-04-25T12:42:15;101543.19;;;11.66;48.15
68230;BME280;55048;52.220;5.160;2023-04-25T12:44:41;101499.09;;;11.21;48.09
68230;BME280;55048;52.220;5.160;2023-04-25T12:47:06;101597.63;;;11.70;45.83
68230;BME280;55048;52.220;5.160;2023-04-25T12:49:32;101587.53;;;11.42;46.40
68230;BME280;55048;52.220;5.160;2023-04-25T12:51:58;101594.28;;;11.44;46.58
68230;BME280;55048;52.220;5.160;2023-04-25T12:54:23;101593.75;;;11.36;46.82
68230;BME280;55048;52.220;5.160;2023-04-25T12:56:51;101529.59;;;10.89;44.06
68230;BME280;55048;52.220;5.160;2023-04-25T12:59:17;101519.75;;;11.08;45.07
68230;BME280;55048;52.220;5.160;2023-04-25T13:01:43;101532.88;;;11.39;44.23
68230;BME280;55048;52.220;5.160;2023-04-25T13:04:10;101552.97;;;11.54;43.54
68230;BME280;55048;52.220;5.160;2023-04-25T13:06:35;101567.97;;;11.85;44.11
68230;BME280;55048;52.220;5.160;2023-04-25T13:09:01;101435.47;;;11.32;43.90
68230;BME280;55048;52.220;5.160;2023-04-25T13:11:27;101543.00;;;11.79;43.78
68230;BME280;55048;52.220;5.160;2023-04-25T13:13:52;101609.06;;;12.07;44.79